ISABELLA DAM (ISB)

Elevation: 2635' · KERN R basin · Operator: US Army Corps of Engineers

Provisional data, subject to change.
Query executed Tuesday at 8:10:38   clock

Select a sensor type for a plot of data.
Note: Reservoir Flows are daily averages.

Earlier

Date RES ELE    STORAGE    RES CHG    TOC STO    ABV TOC    OUTFLOW    INFLOW    FNF    PPT INC    PPTINC4    TEMP MN    TEMP MX    WINDLEN    EVP PAN   
 FEET   AF   AF   AF   AF   CFS   CFS   CFS   INCHES   INCHES   DEG F   DEG F   MILES   INCHES  
06/29/2015 2525.73 36510 -365 361250 -324740 299 135 135 0.00 0.00 25 38 134 0.32
06/30/2015 2525.55 36147 -363 361250 -325103 290 132 132 0.00 0.00 22 41 120 0.38
07/01/2015 2525.40 35848 -299 361250 -325402 292 158 158 0.00 0.00 21 35 163 0.26
07/02/2015 2525.27 35589 -259 361250 -325661 279 171 171 0.06 0.00 24 38 146 0.35
07/03/2015 2525.37 35788 199 361250 -325462 236 362 362 0.00 0.06 22 39 128 0.40
07/04/2015 2525.49 36027 239 361250 -325223 236 370 383 0.02 0.00 23 40 128 0.41
07/05/2015 2525.47 35987 -40 361250 -325263 288 294 294 0.00 0.02 23 37 135 0.40
07/06/2015 2525.45 35947 -40 361250 -325303 327 333 333 0.00 0.00 22 36 167 0.41
07/07/2015 2525.36 35768 -179 361250 -325482 344 279 279 0.00 0.00 21 34 172 0.39
07/08/2015 2525.25 35550 -218 361250 -325700 338 252 252 0.00 0.00 19 31 178 0.37
07/09/2015 2525.12 35293 -257 361250 -325957 328 221 221 0.00 0.00 18 27 222 0.35
07/10/2015 2524.99 35037 -256 361250 -326213 322 214 214 0.00 0.00 16 28 170 0.32
07/11/2015 2524.89 34842 -195 361250 -326408 310 234 234 0.00 -- 18 32 135 0.34
07/12/2015 2524.81 34686 -156 361250 -326564 281 226 226 0.00 0.00 17 33 150 0.37
07/13/2015 2524.72 34511 -175 361250 -326739 265 200 200 0.00 -- 19 34 142 0.37
07/14/2015 2524.61 34299 -212 361250 -326951 265 183 183 0.00 0.00 20 33 178 0.39
07/15/2015 2524.50 34087 -212 361250 -327163 243 159 159 0.00 0.00 20 34 149 0.38
07/16/2015 2524.43 33953 -134 361250 -327297 214 170 170 0.00 0.00 20 37 111 0.37
07/17/2015 2524.34 33781 -172 361250 -327469 207 144 144 0.00 0.00 18 39 115 0.39
07/18/2015 2524.28 33666 -115 361250 -327584 202 162 162 0.00 0.00 20 35 148 0.30
07/19/2015 2524.21 33533 -133 361250 -327717 195 144 144 0.00 0.00 20 31 122 0.27
07/20/2015 2524.18 33477 -56 361250 -327773 182 168 168 0.03 0.01 20 32 108 0.24
07/21/2015 2524.18 33477 0 361250 -327773 160 181 181 0.06 0.03 19 34 138 0.34
07/22/2015 2524.21 33533 56 361250 -327717 169 219 219 0.00 0.06 21 33 156 0.35
07/23/2015 2524.26 33628 95 361250 -327622 187 259 259 0.00 0.00 20 32 200 0.39
07/24/2015 2524.25 33609 -19 361250 -327641 203 219 219 0.00 0.00 20 32 198 0.40
07/25/2015 2524.18 33477 -132 361250 -327773 224 181 181 0.00 0.00 20 33 180 0.40
07/26/2015 2524.09 33306 -171 361250 -327944 222 157 157 0.00 0.00 19 33 171 0.34
07/27/2015 2524.03 33193 -113 361250 -328057 191 158 -- 0.00 0.00 20 33 189 0.40
07/28/2015 -- -- -- -- -- -- -- -- -- 0.00 -- -- -- --

Later | Latest

Warning! This data is preliminary and subject to revision.

Show ISB Map | Plot ISB Data | 1 Month ISB Data | Real-Time ISB Data | ISB Info